Alvin, Wisconsin
Current Conditions -  °F | °C
As of 8:55 AM on Thursday 18 Dec 2014 (Local Time) from KEGV Reporting Station
Overcast Overcast  
Wind Chill: 10°   Ceiling: 1300
Heat Index: 20°   Visibility: 10mi
Dew Point: 15°   Wind: 9mph
Humidity: 80%   Direction: 80°E
Pressure: 30.24"   Gusts: NA
Location:  45.9186°N, 88.7601°W
Report Text: KEGV 181455Z AUTO 08008KT 10SM OVC013 M06/M09 A3024 RMK AO2 T10651095
Loading
Personal Weather Stations






























Interactive Weather Map New forecast layout! Learn more

10-Day Weather Forecast

Advertisements
Track Severe Weather on mobile